Flight Track Log - Related Links

Times and Time Zones

All times are in EDT time to prevent confusion due to time zone crossing. See the SWA1729 flight status page for this flight to view local times or setup timezone preferences in your user account.


Time Position Orientation Groundspeed Altitude Reporting Facility
EDT Latitude Longitude Course Direction KTS MPH feet Rate Location/Type
Wed 07:24:35 PM 36.1000 -86.6833 256° West 160 184 1,500  Level Nashville TRACON
Wed 07:25:41 PM 36.0833 -86.7667 256° West 222 255 3,400 1,832 Climbing Nashville TRACON
Wed 07:26:46 PM 36.0925 -86.8611 277° West 284 327 5,500 2,692 Climbing Memphis Center
Wed 07:28:46 PM 36.0964 -87.0767 271° West 343 395 11,700 3,133 Climbing Memphis Center
Wed 07:29:46 PM 36.0972 -87.1922 271° West 349 402 14,900 2,824 Climbing Memphis Center
Wed 07:30:45 PM 36.0814 -87.3086 260° West 342 394 17,300 1,866 Climbing Memphis Center
Wed 07:31:45 PM 36.0550 -87.4225 254° West 362 417 18,600 1,785 Climbing Memphis Center
Wed 07:32:46 PM 36.0078 -87.5422 244° Southwest 389 448 20,900 2,450 Climbing Memphis Center
Wed 07:33:45 PM 35.9583 -87.6669 244° Southwest 406 467 23,500 2,269 Climbing Memphis Center
Wed 07:34:45 PM 35.9108 -87.7917 245° Southwest 406 467 25,400 1,650 Climbing Memphis Center
Wed 07:35:45 PM 35.8614 -87.9186 244° Southwest 411 473 26,800 1,488 Climbing Memphis Center
Wed 07:36:46 PM 35.8075 -88.0481 243° Southwest 421 484 28,400 1,500 Climbing Memphis Center
Wed 07:37:45 PM 35.7578 -88.1750 244° Southwest 419 482 29,800 1,600 Climbing Memphis Center
Wed 07:38:46 PM 35.7036 -88.3092 244° Southwest 419 482 31,600 1,100 Climbing Memphis Center
Wed 07:39:45 PM 35.6494 -88.4408 243° Southwest 424 488 32,000 454 Climbing Memphis Center
Wed 07:40:45 PM 35.5972 -88.5697 244° Southwest 429 494 32,500 744 Climbing Memphis Center
Wed 07:41:46 PM 35.5428 -88.7011 243° Southwest 429 494 33,500 750 Climbing Memphis Center
Wed 07:42:45 PM 35.4922 -88.8347 245° Southwest 429 494 34,000 252 Climbing Memphis Center
Wed 07:43:45 PM 35.4356 -88.9683 243° Southwest 429 494 34,000  Level Memphis Center
Wed 07:44:45 PM 35.3764 -89.1119 243° Southwest 428 493 34,000  Level Memphis Center
Wed 07:45:45 PM 35.3214 -89.2475 244° Southwest 434 499 34,000  Level Memphis Center
Wed 07:46:46 PM 35.2706 -89.3778 244° Southwest 434 499 34,000  Level Memphis Center
Wed 07:47:46 PM 35.2150 -89.5083 243° Southwest 434 499 34,000  Level Memphis Center
Wed 07:48:45 PM 35.1639 -89.6383 244° Southwest 428 493 34,000  Level Memphis Center
Wed 07:49:45 PM 35.1081 -89.7708 243° Southwest 428 493 34,000  Level Memphis Center
Wed 07:50:45 PM 35.0544 -89.9081 245° Southwest 435 501 34,000  Level Memphis Center
Wed 07:51:46 PM 34.9819 -90.0250 233° Southwest 440 506 34,000  Level Memphis Center
Wed 07:52:45 PM 34.8839 -90.1114 216° Southwest 429 494 34,000  Level Memphis Center
Wed 07:53:46 PM 34.7881 -90.1953 216° Southwest 429 494 34,000  Level Memphis Center
Wed 07:54:45 PM 34.6944 -90.2814 217° Southwest 429 494 34,000  Level Memphis Center
Wed 07:55:45 PM 34.6006 -90.3697 218° Southwest 429 494 34,000 200 Level Memphis Center
Wed 07:56:45 PM 34.5086 -90.4528 217° Southwest 423 487 34,400 1,000 Climbing Memphis Center
Wed 07:57:45 PM 34.4189 -90.5333 217° Southwest 423 487 36,000 800 Climbing Memphis Center
Wed 07:58:45 PM 34.3311 -90.6111 216° Southwest 408 470 36,000  Level Memphis Center
Wed 07:59:45 PM 34.2411 -90.6914 216° Southwest 403 464 36,000  Level Memphis Center
Wed 08:00:45 PM 34.1492 -90.7739 217° Southwest 410 472 36,000  Level Memphis Center
Wed 08:01:45 PM 34.0694 -90.8461 217° Southwest 410 472 36,000  Level Memphis Center
Wed 08:02:45 PM 33.9794 -90.9283 217° Southwest 410 472 36,000  Level Memphis Center
Wed 08:03:46 PM 33.8892 -91.0103 217° Southwest 416 479 36,000  Level Memphis Center
Wed 08:04:45 PM 33.7908 -91.0969 216° Southwest 416 479 36,000  Level Memphis Center
Wed 08:05:45 PM 33.6983 -91.1811 217° Southwest 416 479 36,000  Level Memphis Center
Wed 08:06:45 PM 33.6081 -91.2600 216° Southwest 416 479 36,000  Level Memphis Center
Wed 08:07:46 PM 33.5156 -91.3414 216° Southwest 416 479 36,000  Level Memphis Center
Wed 08:08:45 PM 33.4231 -91.4225 216° Southwest 422 486 36,000  Level Memphis Center
Wed 08:09:45 PM 33.3283 -91.5058 216° Southwest 415 478 36,000  Level Memphis Center
Wed 08:11:59 PM 33.1261 -91.6889 217° Southwest 420 483 36,000  Level Houston Center
Wed 08:13:01 PM 33.0292 -91.7664 214° Southwest 413 475 36,000  Level Houston Center
Wed 08:14:06 PM 32.9397 -91.8469 217° Southwest 429 494 36,000  Level Fort Worth Center
Wed 08:15:06 PM 32.8475 -91.9342 218° Southwest 423 487 36,000  Level Fort Worth Center
Wed 08:16:06 PM 32.7661 -92.0256 223° Southwest 418 481 36,000  Level Fort Worth Center
Wed 08:17:06 PM 32.6806 -92.1244 224° Southwest 428 493 36,000  Level Fort Worth Center
Wed 08:19:11 PM 32.5103 -92.3564 229° Southwest 424 488 36,000  Level Houston Center
Wed 08:20:13 PM 32.4400 -92.4672 233° Southwest 425 489 36,000  Level Houston Center
Wed 08:21:15 PM 32.3694 -92.5792 233° Southwest 424 488 36,000  Level Houston Center
Wed 08:22:17 PM 32.2956 -92.6972 234° Southwest 438 504 36,000  Level Houston Center
Wed 08:23:19 PM 32.2219 -92.8111 233° Southwest 440 506 36,000  Level Houston Center
Wed 08:25:22 PM 32.0308 -93.0269 224° Southwest 433 498 36,000  Level Houston Center
Wed 08:26:24 PM 31.9392 -93.1203 221° Southwest 436 502 36,000  Level Houston Center
Wed 08:27:26 PM 31.8464 -93.2128 220° Southwest 438 504 36,000  Level Houston Center
Wed 08:28:28 PM 31.7531 -93.3047 220° Southwest 440 506 36,000  Level Houston Center
Wed 08:29:30 PM 31.6633 -93.3933 220° Southwest 430 495 36,000  Level Houston Center
Wed 08:30:31 PM 31.5767 -93.4775 220° Southwest 413 475 36,000  Level Houston Center
Wed 08:31:33 PM 31.4731 -93.5781 220° Southwest 406 467 36,000 -48 Level Houston Center
Wed 08:32:35 PM 31.3956 -93.6703 225° Southwest 414 476 35,900 -484 Descending Houston Center
Wed 08:33:37 PM 31.3667 -93.8017 256° West 418 481 35,000 -919 Descending Houston Center
Wed 08:34:39 PM 31.3511 -93.9367 262° West 418 481 34,000 -976 Descending Houston Center
Wed 08:35:40 PM 31.2769 -94.0411 230° Southwest 417 480 33,000 -1,366 Descending Houston Center
Wed 08:36:42 PM 31.1903 -94.1325 222° Southwest 419 482 31,200 -2,032 Descending Houston Center
Wed 08:37:44 PM 31.0806 -94.2253 216° Southwest 407 468 28,800 -2,195 Descending Houston Center
Wed 08:38:45 PM 30.9792 -94.2756 203° Southwest 400 460 26,700 -2,000 Descending Houston Center
Wed 08:39:47 PM 30.8736 -94.2750 180° South 382 440 24,700 -1,548 Descending Houston Center
Wed 08:40:49 PM 30.7781 -94.3200 202° Southwest 371 427 23,500 -923 Descending Houston Center
Wed 08:41:18 PM 30.7328 -94.3500 210° Southwest 380 437 23,300 -484 Descending Houston Center
Wed 08:41:51 PM 30.6856 -94.3831 211° Southwest 394 453 23,000 -490 Descending Houston Center
Wed 08:42:07 PM 30.6461 -94.4100 210° Southwest 411 473 22,900 -984 Descending Houston Center
Wed 08:42:52 PM 30.5889 -94.4508 212° Southwest 405 466 22,000 -1,770 Descending Houston Center
Wed 08:43:08 PM 30.5461 -94.4814 212° Southwest 413 475 21,100 -2,226 Descending Houston Center
Wed 08:43:54 PM 30.4917 -94.5253 215° Southwest 396 456 19,700 -2,262 Descending Houston Center
Wed 08:44:09 PM 30.4656 -94.5622 231° Southwest 380 437 18,800 -2,323 Descending Houston Center
Wed 08:44:56 PM 30.4269 -94.6228 234° Southwest 375 432 17,300 -2,056 Descending Houston Center
Wed 08:45:57 PM 30.3675 -94.7167 234° Southwest 365 420 15,100 -2,368 Descending Houston Center
Wed 08:46:12 PM 30.3450 -94.7497 232° Southwest 357 411 14,300 -1,658 Descending Houston Center
Wed 08:47:13 PM 30.2831 -94.8472 234° Southwest 350 403 13,000 -826 Descending Houston Center
Wed 08:48:01 PM 30.2397 -94.9144 233° Southwest 349 402 12,800 -661 Descending Houston Center
Wed 08:49:02 PM 30.1822 -95.0036 233° Southwest 348 400 11,800 -927 Descending Houston Center
Wed 08:50:04 PM 30.1139 -95.0806 224° Southwest 349 402 10,900 -878 Descending Houston Center
Wed 08:51:05 PM 30.0203 -95.1211 201° Southwest 360 414 10,000 -439 Descending Houston Center
Wed 08:52:07 PM 29.9278 -95.1603 200° South 357 411 10,000 -194 Level Houston Center
Wed 08:53:09 PM 29.8397 -95.1981 200° South 345 397 9,600 -878 Descending Houston Center
Wed 08:54:10 PM 29.7606 -95.2308 200° South 313 360 8,200 -1,512 Descending Houston Center
Wed 08:55:12 PM 29.6614 -95.2364 183° South 300 345 6,500 -1,073 Descending Houston Center
Wed 08:56:13 PM 29.5850 -95.2386 181° South 291 335 6,000 -634 Descending Houston Center
Wed 08:57:15 PM 29.5297 -95.2739 209° Southwest 250 288 5,200 -1,220 Descending Houston Center
Wed 08:58:16 PM 29.4828 -95.3269 225° Southwest 241 277 3,500 -1,463 Descending Houston Center
Wed 08:59:18 PM 29.5206 -95.3639 320° Northwest 230 265 2,200 -992 Descending Houston Center
Wed 09:00:29 PM 29.5853 -95.3383 19° North 160 184 1,300 -732 Descending Houston Center
Wed 09:01:21 PM 29.6133 -95.3147 36° Northeast 165 190 700 -692 Descending Houston Center

Login

Don't have an account? Register now (free) for customized features, flight alerts, and more!